createdAt,value
2022-11-10T00:01:20.799Z,12.83
2022-11-10T00:03:51.024Z,12.78
2022-11-10T00:06:19.971Z,12.78
2022-11-10T00:08:48.708Z,12.78
2022-11-10T00:11:17.517Z,12.69
2022-11-10T00:14:07.062Z,12.82
2022-11-10T00:16:52.776Z,12.85
2022-11-10T00:19:21.566Z,12.85
2022-11-10T00:21:50.125Z,12.83
2022-11-10T00:24:19.227Z,12.86
2022-11-10T00:26:47.939Z,12.84
2022-11-10T00:29:18.052Z,12.83
2022-11-10T00:31:47.469Z,12.76
2022-11-10T00:34:18.172Z,12.75
2022-11-10T00:36:46.736Z,12.77
2022-11-10T00:39:15.703Z,12.78
2022-11-10T00:41:44.331Z,12.80
2022-11-10T00:44:13.898Z,12.87
2022-11-10T00:46:43.815Z,12.92
2022-11-10T00:49:12.733Z,12.97
2022-11-10T00:51:41.586Z,12.93
2022-11-10T00:54:10.788Z,12.92
2022-11-10T00:56:39.572Z,12.93
2022-11-10T00:59:08.252Z,12.99
2022-11-10T01:01:37.193Z,13.05
2022-11-10T01:04:08.407Z,13.06
2022-11-10T01:06:37.060Z,13.05
2022-11-10T01:09:06.184Z,13.06
2022-11-10T01:11:35.113Z,13.13
2022-11-10T01:14:03.700Z,13.09
2022-11-10T01:16:33.361Z,13.10
2022-11-10T01:19:04.805Z,13.13
2022-11-10T01:21:35.178Z,13.10
2022-11-10T01:24:06.552Z,13.08
2022-11-10T01:26:35.153Z,13.15
2022-11-10T01:29:04.893Z,13.15
2022-11-10T01:31:33.451Z,13.15
2022-11-10T01:34:02.207Z,13.19
2022-11-10T01:36:30.953Z,13.07
2022-11-10T01:39:02.758Z,13.00
2022-11-10T01:41:31.420Z,13.09
2022-11-10T01:44:17.991Z,12.96
2022-11-10T01:46:46.790Z,12.95
2022-11-10T01:49:18.836Z,12.95
2022-11-10T01:51:52.198Z,12.91
2022-11-10T01:54:25.961Z,12.84
2022-11-10T01:57:00.378Z,12.87
2022-11-10T01:59:33.322Z,12.85
2022-11-10T02:02:13.454Z,12.84
2022-11-10T02:04:43.226Z,12.90
2022-11-10T02:07:13.712Z,12.95
2022-11-10T02:09:43.866Z,12.89
2022-11-10T02:12:13.872Z,12.88
2022-11-10T02:14:42.987Z,12.86
2022-11-10T02:17:12.167Z,12.79
2022-11-10T02:19:42.984Z,12.79
2022-11-10T02:22:13.457Z,12.87
2022-11-10T02:24:41.990Z,12.78
2022-11-10T02:27:10.465Z,12.86
2022-11-10T02:29:39.309Z,12.85
2022-11-10T02:32:07.805Z,12.84
2022-11-10T02:34:36.352Z,12.89
2022-11-10T02:37:05.510Z,12.89
2022-11-10T02:39:35.864Z,12.94
2022-11-10T02:42:04.848Z,13.00
2022-11-10T02:44:33.502Z,13.05
2022-11-10T02:47:02.186Z,13.07
2022-11-10T02:49:30.867Z,13.20
2022-11-10T02:51:59.461Z,13.15
2022-11-10T02:54:28.083Z,13.32
2022-11-10T02:56:58.451Z,13.22
2022-11-10T02:59:27.067Z,13.17
2022-11-10T03:01:56.994Z,13.15
2022-11-10T03:04:25.902Z,13.24
2022-11-10T03:06:55.496Z,13.21
2022-11-10T03:09:24.252Z,13.19
2022-11-10T03:11:53.025Z,13.20
2022-11-10T03:14:23.003Z,13.18
2022-11-10T03:16:51.533Z,13.18
2022-11-10T03:19:21.037Z,13.21
2022-11-10T03:21:49.989Z,13.26
2022-11-10T03:24:18.591Z,13.27
2022-11-10T03:26:47.347Z,13.34
2022-11-10T03:29:16.020Z,13.41
2022-11-10T03:31:45.896Z,13.39
2022-11-10T03:34:14.575Z,13.47
2022-11-10T03:36:43.192Z,13.44
2022-11-10T03:39:11.787Z,13.43
2022-11-10T03:41:40.229Z,13.50
2022-11-10T03:44:09.464Z,13.53
2022-11-10T03:46:40.530Z,13.41
2022-11-10T03:49:13.317Z,13.42
2022-11-10T03:51:41.950Z,13.33
2022-11-10T03:54:10.488Z,13.25
2022-11-10T03:56:39.214Z,13.10
2022-11-10T03:59:07.976Z,13.05
2022-11-10T04:01:36.669Z,12.93
2022-11-10T04:04:05.188Z,12.89
2022-11-10T04:06:52.696Z,12.83
2022-11-10T04:09:21.120Z,12.91
2022-11-10T04:12:08.206Z,12.87
2022-11-10T04:14:56.482Z,12.85
2022-11-10T04:17:24.867Z,12.86
2022-11-10T04:19:53.224Z,12.82
2022-11-10T04:22:37.230Z,12.76
2022-11-10T04:25:06.357Z,12.82
2022-11-10T04:27:33.631Z,12.91
2022-11-10T04:30:03.205Z,12.96
2022-11-10T04:32:31.620Z,12.95
2022-11-10T04:35:00.030Z,12.90
2022-11-10T04:37:30.249Z,12.92
2022-11-10T04:39:58.727Z,13.02
2022-11-10T04:42:27.070Z,12.97
2022-11-10T04:44:56.140Z,13.04
2022-11-10T04:47:24.618Z,13.04
2022-11-10T04:49:53.072Z,13.04
2022-11-10T04:52:21.770Z,13.16
2022-11-10T04:54:51.861Z,13.39
2022-11-10T04:57:20.466Z,13.37
2022-11-10T04:59:50.162Z,13.37
2022-11-10T05:02:19.835Z,13.44
2022-11-10T05:04:48.537Z,13.42
2022-11-10T05:07:17.398Z,13.51
2022-11-10T05:09:47.022Z,13.63
2022-11-10T05:12:22.103Z,13.73
2022-11-10T05:14:51.329Z,13.70
2022-11-10T05:17:19.819Z,13.67
2022-11-10T05:19:48.418Z,13.77
2022-11-10T05:22:16.958Z,13.74
2022-11-10T05:24:45.542Z,13.69
2022-11-10T05:27:14.249Z,13.72
2022-11-10T05:29:44.533Z,13.72
2022-11-10T05:32:13.065Z,13.64
2022-11-10T05:34:41.607Z,13.51
2022-11-10T05:37:10.277Z,13.47
2022-11-10T05:39:38.704Z,13.57
2022-11-10T05:42:07.577Z,13.59
2022-11-10T05:44:36.353Z,13.50
2022-11-10T05:47:07.310Z,13.55
2022-11-10T05:49:36.089Z,13.52
2022-11-10T05:52:05.141Z,13.45
2022-11-10T05:54:33.847Z,13.45
2022-11-10T05:57:02.517Z,13.50
2022-11-10T05:59:31.001Z,13.53
2022-11-10T06:01:59.535Z,13.68
2022-11-10T06:04:30.223Z,13.75
2022-11-10T06:06:58.891Z,13.73
2022-11-10T06:09:27.698Z,13.76
2022-11-10T06:11:56.039Z,13.68
2022-11-10T06:14:24.581Z,13.67
2022-11-10T06:16:53.135Z,13.63
2022-11-10T06:19:22.797Z,13.60
2022-11-10T06:21:58.905Z,13.56
2022-11-10T06:24:31.982Z,13.56
2022-11-10T06:27:00.932Z,13.55
2022-11-10T06:29:29.857Z,13.54
2022-11-10T06:31:59.360Z,13.61
2022-11-10T06:34:27.994Z,13.58
2022-11-10T06:36:58.524Z,13.55
2022-11-10T06:39:27.008Z,13.63
2022-11-10T06:41:55.910Z,13.66
2022-11-10T06:44:24.437Z,13.67
2022-11-10T06:46:54.275Z,13.60
2022-11-10T06:49:23.853Z,13.64
2022-11-10T06:51:53.404Z,13.54
2022-11-10T06:54:32.323Z,13.51
2022-11-10T06:57:01.251Z,13.56
2022-11-10T06:59:30.429Z,13.59
2022-11-10T07:01:59.470Z,13.64
2022-11-10T07:04:28.135Z,13.68
2022-11-10T07:06:56.816Z,13.69
2022-11-10T07:09:25.322Z,13.71
2022-11-10T07:11:55.418Z,13.82
2022-11-10T07:14:24.646Z,13.68
2022-11-10T07:16:53.635Z,13.80
2022-11-10T07:19:22.860Z,13.73
2022-11-10T07:21:51.559Z,13.71
2022-11-10T07:24:19.920Z,13.66
2022-11-10T07:26:48.642Z,13.65
2022-11-10T07:29:18.647Z,13.61
2022-11-10T07:31:47.152Z,13.66
2022-11-10T07:34:16.260Z,13.66
2022-11-10T07:36:46.712Z,13.61
2022-11-10T07:39:16.546Z,13.66
2022-11-10T07:41:52.100Z,13.69
2022-11-10T07:44:24.813Z,13.74
2022-11-10T07:46:57.658Z,13.72
2022-11-10T07:49:31.998Z,13.71
2022-11-10T07:52:00.549Z,13.73
2022-11-10T07:54:37.351Z,13.77
2022-11-10T07:57:15.104Z,13.78
2022-11-10T08:00:04.908Z,13.75
2022-11-10T08:02:45.179Z,13.76
2022-11-10T08:05:36.199Z,13.75
2022-11-10T08:08:23.269Z,13.76
2022-11-10T08:11:10.946Z,13.72
2022-11-10T08:13:53.562Z,13.86
2022-11-10T08:16:36.859Z,13.89
2022-11-10T08:19:12.580Z,13.93
2022-11-10T08:21:50.998Z,13.93
2022-11-10T08:24:30.630Z,13.84
2022-11-10T08:26:59.490Z,13.89
2022-11-10T08:29:27.936Z,13.85
2022-11-10T08:31:59.610Z,13.88
2022-11-10T08:34:29.622Z,13.90
2022-11-10T08:36:58.329Z,13.88
2022-11-10T08:39:38.649Z,13.93
2022-11-10T08:42:08.417Z,13.93
2022-11-10T08:44:38.018Z,13.98
2022-11-10T08:47:08.536Z,14.13
2022-11-10T08:49:37.086Z,14.15
2022-11-10T08:52:06.247Z,14.16
2022-11-10T08:54:34.926Z,14.19
2022-11-10T08:57:03.946Z,14.19
2022-11-10T08:59:32.871Z,14.19
2022-11-10T09:02:02.202Z,14.26
2022-11-10T09:04:32.733Z,14.29
2022-11-10T09:07:01.931Z,14.23
2022-11-10T09:09:30.279Z,14.33
2022-11-10T09:11:58.679Z,14.37
2022-11-10T09:14:28.096Z,14.36
2022-11-10T09:16:56.933Z,14.40
2022-11-10T09:19:25.474Z,14.37
2022-11-10T09:21:55.910Z,14.33
2022-11-10T09:24:30.014Z,14.36
2022-11-10T09:27:00.165Z,14.38
2022-11-10T09:29:28.470Z,14.35
2022-11-10T09:31:57.481Z,14.42
2022-11-10T09:34:26.626Z,14.39
2022-11-10T09:36:58.358Z,14.40
2022-11-10T09:39:28.400Z,14.31
2022-11-10T09:41:57.359Z,14.26
2022-11-10T09:44:30.532Z,14.23
2022-11-10T09:47:02.662Z,14.20
2022-11-10T09:49:37.038Z,14.11
2022-11-10T09:52:08.615Z,14.06
2022-11-10T09:54:44.689Z,14.06
2022-11-10T09:57:17.224Z,14.19
2022-11-10T09:59:46.207Z,14.29
2022-11-10T10:02:24.549Z,14.55
2022-11-10T10:05:22.096Z,14.65
2022-11-10T10:08:00.113Z,14.71
2022-11-10T10:10:38.407Z,14.78
2022-11-10T10:13:24.792Z,14.86
2022-11-10T10:16:04.994Z,14.80
2022-11-10T10:18:40.988Z,14.91
2022-11-10T10:21:30.903Z,14.88
2022-11-10T10:24:10.315Z,14.88
2022-11-10T10:26:46.595Z,14.86
2022-11-10T10:29:21.528Z,14.87
2022-11-10T10:31:52.119Z,14.79
2022-11-10T10:34:24.848Z,14.78
2022-11-10T10:36:53.333Z,14.76
2022-11-10T10:39:30.571Z,14.78
2022-11-10T10:41:59.837Z,14.83
2022-11-10T10:44:28.714Z,14.76
2022-11-10T10:47:00.282Z,14.86
2022-11-10T10:49:31.160Z,15.07
2022-11-10T10:52:08.585Z,15.24
2022-11-10T10:54:40.113Z,15.43
2022-11-10T10:57:24.328Z,15.55
2022-11-10T10:59:54.126Z,15.66
2022-11-10T11:02:29.054Z,15.57
2022-11-10T11:05:13.518Z,15.43
2022-11-10T11:07:42.862Z,15.44
2022-11-10T11:10:25.735Z,15.36
2022-11-10T11:12:54.143Z,15.37
2022-11-10T11:15:27.013Z,15.63
2022-11-10T11:17:57.388Z,15.96
2022-11-10T11:20:33.799Z,15.90
2022-11-10T11:23:09.792Z,15.79
2022-11-10T11:25:43.626Z,15.73
2022-11-10T11:28:24.576Z,15.77
2022-11-10T11:31:05.427Z,15.86
2022-11-10T11:33:43.257Z,15.70
2022-11-10T11:36:20.795Z,15.79
2022-11-10T11:39:00.119Z,15.81
2022-11-10T11:41:42.147Z,15.94
2022-11-10T11:44:21.069Z,16.03
2022-11-10T11:47:00.813Z,15.92
2022-11-10T11:49:51.706Z,15.72
2022-11-10T11:52:33.711Z,15.88
2022-11-10T11:55:21.674Z,15.91
2022-11-10T11:58:16.476Z,15.73
2022-11-10T12:00:52.315Z,15.75
2022-11-10T12:03:36.374Z,15.73
2022-11-10T12:06:23.474Z,15.78
2022-11-10T12:09:00.713Z,15.75
2022-11-10T12:11:39.073Z,15.71
2022-11-10T12:14:19.391Z,15.57
2022-11-10T12:16:57.354Z,15.56
2022-11-10T12:19:34.182Z,15.50
2022-11-10T12:22:14.339Z,15.35
2022-11-10T12:24:57.183Z,15.29
2022-11-10T12:27:30.317Z,15.35
2022-11-10T12:30:05.935Z,15.60
2022-11-10T12:32:43.522Z,15.63
2022-11-10T12:35:17.227Z,15.60
2022-11-10T12:37:51.875Z,15.54
2022-11-10T12:40:23.887Z,15.55
2022-11-10T12:43:01.248Z,15.61
2022-11-10T12:45:37.589Z,15.49
2022-11-10T12:48:07.961Z,15.31
2022-11-10T12:50:46.706Z,15.38
2022-11-10T12:53:24.446Z,15.22
2022-11-10T12:55:58.728Z,15.21
2022-11-10T12:58:28.757Z,15.41
2022-11-10T13:01:17.696Z,15.71
2022-11-10T13:03:57.217Z,15.84
2022-11-10T13:06:30.429Z,15.78
2022-11-10T13:09:01.165Z,15.73
2022-11-10T13:11:34.889Z,15.65
2022-11-10T13:14:06.708Z,15.59
2022-11-10T13:16:52.271Z,15.48
2022-11-10T13:20:05.214Z,15.54
2022-11-10T13:22:48.128Z,15.61
2022-11-10T13:25:55.095Z,15.47
2022-11-10T13:29:01.135Z,15.44
2022-11-10T13:31:55.858Z,15.40
2022-11-10T13:34:35.125Z,15.46
2022-11-10T13:37:25.738Z,15.52
2022-11-10T13:39:55.668Z,15.55
2022-11-10T13:42:25.545Z,15.59
2022-11-10T13:44:54.166Z,15.52
2022-11-10T13:47:53.371Z,15.54
2022-11-10T13:50:36.470Z,15.64
2022-11-10T13:53:20.759Z,15.49
2022-11-10T13:56:04.742Z,15.40
2022-11-10T13:58:36.777Z,15.42
2022-11-10T14:01:30.732Z,15.41
2022-11-10T14:04:04.415Z,15.41
2022-11-10T14:06:44.048Z,15.41
2022-11-10T14:09:22.873Z,15.40
2022-11-10T14:11:57.605Z,15.46
2022-11-10T14:14:28.820Z,15.48
2022-11-10T14:16:58.334Z,15.47
2022-11-10T14:19:38.249Z,15.49
2022-11-10T14:22:20.537Z,15.50
2022-11-10T14:24:56.138Z,15.44
2022-11-10T14:27:28.709Z,15.48
2022-11-10T14:30:11.264Z,15.34
2022-11-10T14:32:39.794Z,15.39
2022-11-10T14:35:21.729Z,15.33
2022-11-10T14:37:50.929Z,15.30
2022-11-10T14:40:22.394Z,15.37
2022-11-10T14:42:50.880Z,15.42
2022-11-10T14:45:21.613Z,15.33
2022-11-10T14:47:55.545Z,15.31
2022-11-10T14:50:27.294Z,15.33
2022-11-10T14:53:00.110Z,15.25
2022-11-10T14:55:33.229Z,15.24
2022-11-10T14:58:07.044Z,15.25
2022-11-10T15:00:39.447Z,15.17
2022-11-10T15:03:10.098Z,15.21
2022-11-10T15:05:41.334Z,15.23
2022-11-10T15:08:14.339Z,15.11
2022-11-10T15:10:48.099Z,15.04
2022-11-10T15:13:34.164Z,15.10
2022-11-10T15:16:34.504Z,15.08
2022-11-10T15:19:26.143Z,15.08
2022-11-10T15:21:57.451Z,15.22
2022-11-10T15:24:28.427Z,15.06
2022-11-10T15:26:57.213Z,15.07
2022-11-10T15:29:26.495Z,15.16
2022-11-10T15:31:55.478Z,15.15
2022-11-10T15:34:34.169Z,15.19
2022-11-10T15:37:24.905Z,15.18
2022-11-10T15:40:37.544Z,15.18
2022-11-10T15:43:16.024Z,15.18
2022-11-10T15:45:45.446Z,15.21
2022-11-10T15:48:15.556Z,15.13
2022-11-10T15:50:46.798Z,15.14
2022-11-10T15:53:19.068Z,15.15
2022-11-10T15:55:48.036Z,15.05
2022-11-10T15:58:18.947Z,15.10
2022-11-10T16:00:48.292Z,15.04
2022-11-10T16:03:19.590Z,15.03
2022-11-10T16:05:48.934Z,14.97
2022-11-10T16:08:21.275Z,15.03
2022-11-10T16:10:51.514Z,15.02
2022-11-10T16:13:24.689Z,15.07
2022-11-10T16:15:54.062Z,15.07
2022-11-10T16:18:24.441Z,15.06
2022-11-10T16:20:54.138Z,14.98
2022-11-10T16:23:26.227Z,14.89
2022-11-10T16:25:57.577Z,14.85
2022-11-10T16:28:29.285Z,14.96
2022-11-10T16:30:57.943Z,14.93
2022-11-10T16:33:28.262Z,14.95
2022-11-10T16:35:58.567Z,14.91
2022-11-10T16:38:30.321Z,14.82
2022-11-10T16:41:00.870Z,14.78
2022-11-10T16:43:30.900Z,14.78
2022-11-10T16:46:03.800Z,14.85
2022-11-10T16:48:34.676Z,14.82
2022-11-10T16:51:04.041Z,14.90
2022-11-10T16:53:34.846Z,14.89
2022-11-10T16:56:03.130Z,14.88
2022-11-10T16:58:31.759Z,14.85
2022-11-10T17:01:03.327Z,14.94
2022-11-10T17:03:35.743Z,14.97
2022-11-10T17:06:05.483Z,14.96
2022-11-10T17:08:37.488Z,14.95
2022-11-10T17:11:06.501Z,15.00
2022-11-10T17:13:35.197Z,14.99
2022-11-10T17:16:06.915Z,14.96
2022-11-10T17:18:36.851Z,15.04
2022-11-10T17:21:10.344Z,15.07
2022-11-10T17:23:41.438Z,15.05
2022-11-10T17:26:11.582Z,15.09
2022-11-10T17:28:40.524Z,15.14
2022-11-10T17:31:09.283Z,15.17
2022-11-10T17:33:37.942Z,15.09
2022-11-10T17:36:07.950Z,15.12
2022-11-10T17:38:36.528Z,15.04
2022-11-10T17:41:10.092Z,15.04
2022-11-10T17:43:44.331Z,15.08
2022-11-10T17:46:14.765Z,15.11
2022-11-10T17:48:43.335Z,15.02
2022-11-10T17:51:21.838Z,14.85
2022-11-10T17:53:50.827Z,14.74
2022-11-10T17:56:21.038Z,14.65
2022-11-10T17:58:58.327Z,14.57
2022-11-10T18:01:27.923Z,14.68
2022-11-10T18:03:57.572Z,14.54
2022-11-10T18:06:27.288Z,14.56
2022-11-10T18:08:56.309Z,14.54
2022-11-10T18:11:42.583Z,14.58
2022-11-10T18:14:12.880Z,14.52
2022-11-10T18:16:42.098Z,14.53
2022-11-10T18:19:12.856Z,14.57
2022-11-10T18:21:41.300Z,14.61
2022-11-10T18:24:09.891Z,14.63
2022-11-10T18:26:39.919Z,14.68
2022-11-10T18:29:08.528Z,14.67
2022-11-10T18:31:37.014Z,14.64
2022-11-10T18:34:05.582Z,14.72
2022-11-10T18:36:34.539Z,14.73
2022-11-10T18:39:03.269Z,14.86
2022-11-10T18:41:49.397Z,14.74
2022-11-10T18:44:21.038Z,14.77
2022-11-10T18:46:49.867Z,14.80
2022-11-10T18:49:18.401Z,14.82
2022-11-10T18:51:47.297Z,14.86
2022-11-10T18:54:16.265Z,14.86
2022-11-10T18:56:44.985Z,14.91
2022-11-10T18:59:15.274Z,14.95
2022-11-10T19:01:46.310Z,14.92
2022-11-10T19:04:16.112Z,15.01
2022-11-10T19:06:45.207Z,14.96
2022-11-10T19:09:13.821Z,14.92
2022-11-10T19:11:42.378Z,14.91
2022-11-10T19:14:11.620Z,14.89
2022-11-10T19:16:40.303Z,14.89
2022-11-10T19:19:11.706Z,14.84
2022-11-10T19:21:40.398Z,14.93
2022-11-10T19:24:09.289Z,14.91
2022-11-10T19:26:38.542Z,14.90
2022-11-10T19:29:08.012Z,14.98
2022-11-10T19:31:36.656Z,15.01
2022-11-10T19:34:05.058Z,15.02
2022-11-10T19:36:34.961Z,14.96
2022-11-10T19:39:03.815Z,15.03
2022-11-10T19:41:34.063Z,15.05
2022-11-10T19:44:03.599Z,15.12
2022-11-10T19:46:37.132Z,15.05
2022-11-10T19:49:06.405Z,15.07
2022-11-10T19:51:36.663Z,15.03
2022-11-10T19:54:06.145Z,15.11
2022-11-10T19:56:37.645Z,15.08
2022-11-10T19:59:08.088Z,15.16
2022-11-10T20:01:37.718Z,15.10
2022-11-10T20:04:08.731Z,15.03
2022-11-10T20:06:38.799Z,15.05
2022-11-10T20:09:07.347Z,15.04
2022-11-10T20:11:36.286Z,15.07
2022-11-10T20:14:06.982Z,15.06
2022-11-10T20:16:35.857Z,15.02
2022-11-10T20:19:07.412Z,14.96
2022-11-10T20:21:35.961Z,15.02
2022-11-10T20:24:06.468Z,15.03
2022-11-10T20:26:35.126Z,14.96
2022-11-10T20:29:04.920Z,14.97
2022-11-10T20:31:34.016Z,15.09
2022-11-10T20:34:02.429Z,15.04
2022-11-10T20:36:34.235Z,15.00
2022-11-10T20:39:02.769Z,15.04
2022-11-10T20:41:33.705Z,15.00
2022-11-10T20:44:02.643Z,14.99
2022-11-10T20:49:20.378Z,14.89
2022-11-10T20:51:49.063Z,14.92
2022-11-10T20:54:21.311Z,14.95
2022-11-10T20:56:52.402Z,14.93
2022-11-10T20:59:22.471Z,14.93
2022-11-10T21:01:51.060Z,14.95
2022-11-10T21:04:23.690Z,14.91
2022-11-10T21:06:52.477Z,14.91
2022-11-10T21:09:24.074Z,14.90
2022-11-10T21:12:12.233Z,14.90
2022-11-10T21:14:43.051Z,14.88
2022-11-10T21:17:11.544Z,14.93
2022-11-10T21:19:41.173Z,14.98
2022-11-10T21:22:09.749Z,14.96
2022-11-10T21:24:38.564Z,14.96
2022-11-10T21:27:10.812Z,14.87
2022-11-10T21:29:39.429Z,14.85
2022-11-10T21:32:09.532Z,14.91
2022-11-10T21:34:38.416Z,14.90
2022-11-10T21:37:07.038Z,14.90
2022-11-10T21:39:35.887Z,14.87
2022-11-10T21:42:04.950Z,14.89
2022-11-10T21:44:38.906Z,14.94
2022-11-10T21:47:09.871Z,14.91
2022-11-10T21:49:38.943Z,14.88
2022-11-10T21:52:07.864Z,14.87
2022-11-10T21:54:38.635Z,14.90
2022-11-10T21:57:08.456Z,14.89
2022-11-10T21:59:41.573Z,14.84
2022-11-10T22:02:12.058Z,14.89
2022-11-10T22:04:42.200Z,14.86
2022-11-10T22:07:26.477Z,14.79
2022-11-10T22:10:14.288Z,14.82
2022-11-10T22:13:02.780Z,14.78
2022-11-10T22:15:52.075Z,14.76
2022-11-10T22:18:41.549Z,14.79
2022-11-10T22:21:11.011Z,14.78
2022-11-10T22:23:57.865Z,14.73
2022-11-10T22:26:26.584Z,14.81
2022-11-10T22:28:54.960Z,14.87
2022-11-10T22:31:25.357Z,14.81
2022-11-10T22:33:53.906Z,14.78
2022-11-10T22:36:23.053Z,14.83
2022-11-10T22:38:51.722Z,14.85
2022-11-10T22:41:37.482Z,14.88
2022-11-10T22:44:06.518Z,14.87
2022-11-10T22:46:38.526Z,14.80
2022-11-10T22:49:09.659Z,14.87
2022-11-10T22:51:40.016Z,14.87
2022-11-10T22:54:12.444Z,14.78
2022-11-10T22:56:41.988Z,14.89
2022-11-10T22:59:11.731Z,14.89
2022-11-10T23:01:42.890Z,14.93
2022-11-10T23:04:12.540Z,14.84
2022-11-10T23:06:41.431Z,14.94
2022-11-10T23:09:10.201Z,14.97
2022-11-10T23:11:38.906Z,14.96
2022-11-10T23:14:07.672Z,14.92
2022-11-10T23:16:36.396Z,14.96
2022-11-10T23:19:06.440Z,14.90
2022-11-10T23:21:35.240Z,14.92
2022-11-10T23:24:03.876Z,14.91
2022-11-10T23:26:34.936Z,14.92
2022-11-10T23:29:03.567Z,14.91
2022-11-10T23:31:32.150Z,14.99
2022-11-10T23:34:01.344Z,14.91
2022-11-10T23:36:31.254Z,14.98
2022-11-10T23:39:09.368Z,14.96
2022-11-10T23:41:51.494Z,14.98
2022-11-10T23:44:33.237Z,14.97
2022-11-10T23:47:05.776Z,15.03
2022-11-10T23:49:34.429Z,14.96
2022-11-10T23:52:06.106Z,14.97
2022-11-10T23:54:34.804Z,15.02
2022-11-10T23:57:03.254Z,14.94
2022-11-10T23:59:31.914Z,15.05
